createdAt,value
2019-05-10T00:00:58.885Z,95.22
2019-05-10T00:01:58.876Z,95.32
2019-05-10T00:02:58.861Z,95.02
2019-05-10T00:03:58.867Z,94.60
2019-05-10T00:04:58.843Z,95.22
2019-05-10T00:05:58.826Z,95.02
2019-05-10T00:06:58.855Z,95.02
2019-05-10T00:07:58.806Z,95.22
2019-05-10T00:08:58.817Z,95.22
2019-05-10T00:09:58.787Z,95.02
2019-05-10T00:10:58.770Z,95.02
2019-05-10T00:11:58.762Z,95.02
2019-05-10T00:12:58.762Z,95.32
2019-05-10T00:13:58.740Z,95.02
2019-05-10T00:14:58.748Z,95.32
2019-05-10T00:15:58.724Z,95.32
2019-05-10T00:16:58.709Z,95.02
2019-05-10T00:17:58.694Z,95.32
2019-05-10T00:18:58.713Z,94.71
2019-05-10T00:19:58.673Z,95.26
2019-05-10T00:20:58.667Z,95.22
2019-05-10T00:21:58.648Z,94.92
2019-05-10T00:22:58.639Z,95.17
2019-05-10T00:23:58.628Z,94.81
2019-05-10T00:25:04.340Z,94.81
2019-05-10T00:25:59.604Z,95.12
2019-05-10T00:26:58.593Z,94.71
2019-05-10T00:27:58.582Z,95.22
2019-05-10T00:28:58.572Z,95.02
2019-05-10T00:29:58.590Z,95.22
2019-05-10T00:30:58.557Z,94.40
2019-05-10T00:31:58.536Z,94.65
2019-05-10T00:32:58.525Z,94.60
2019-05-10T00:33:58.515Z,94.60
2019-05-10T00:34:58.501Z,95.26
2019-05-10T00:35:58.506Z,94.81
2019-05-10T00:36:58.484Z,95.02
2019-05-10T00:37:58.474Z,94.51
2019-05-10T00:38:58.457Z,94.85
2019-05-10T00:39:58.445Z,95.06
2019-05-10T00:40:58.449Z,95.17
2019-05-10T00:41:58.429Z,95.17
2019-05-10T00:42:58.427Z,94.24
2019-05-10T00:43:58.403Z,94.14
2019-05-10T00:44:58.399Z,93.84
2019-05-10T00:45:58.392Z,94.20
2019-05-10T00:46:58.376Z,94.14
2019-05-10T00:47:58.366Z,94.34
2019-05-10T00:48:58.353Z,94.10
2019-05-10T00:49:58.337Z,94.34
2019-05-10T00:50:58.381Z,93.93
2019-05-10T00:51:58.317Z,94.45
2019-05-10T00:52:58.307Z,94.65
2019-05-10T00:53:58.307Z,94.34
2019-05-10T00:54:58.285Z,94.14
2019-05-10T00:55:58.269Z,94.24
2019-05-10T00:56:58.272Z,94.45
2019-05-10T00:57:58.249Z,93.93
2019-05-10T00:58:58.237Z,93.93
2019-05-10T00:59:58.232Z,93.47
2019-05-10T01:00:58.225Z,94.34
2019-05-10T01:01:58.229Z,93.77
2019-05-10T01:02:58.193Z,93.88
2019-05-10T01:03:58.182Z,93.88
2019-05-10T01:04:58.175Z,93.67
2019-05-10T01:05:58.162Z,93.57
2019-05-10T01:06:58.158Z,93.37
2019-05-10T01:07:58.158Z,93.26
2019-05-10T01:08:58.131Z,93.26
2019-05-10T01:09:58.129Z,93.06
2019-05-10T01:10:58.109Z,93.57
2019-05-10T01:11:58.097Z,93.20
2019-05-10T01:12:58.096Z,92.90
2019-05-10T01:13:58.075Z,93.10
2019-05-10T01:14:58.079Z,93.51
2019-05-10T01:15:58.058Z,93.41
2019-05-10T01:16:58.046Z,93.20
2019-05-10T01:17:58.042Z,93.57
2019-05-10T01:18:58.057Z,93.30
2019-05-10T01:19:58.200Z,93.20
2019-05-10T01:20:58.001Z,93.30
2019-05-10T01:21:57.989Z,93.62
2019-05-10T01:22:57.990Z,94.02
2019-05-10T01:23:57.973Z,93.71
2019-05-10T01:24:57.963Z,93.30
2019-05-10T01:25:57.945Z,93.25
2019-05-10T01:26:57.934Z,93.25
2019-05-10T01:27:57.946Z,93.41
2019-05-10T01:28:57.919Z,93.35
2019-05-10T01:29:57.904Z,93.25
2019-05-10T01:30:57.889Z,93.20
2019-05-10T01:31:57.878Z,93.15
2019-05-10T01:32:57.901Z,93.15
2019-05-10T01:33:57.878Z,93.45
2019-05-10T01:34:57.848Z,93.55
2019-05-10T01:35:57.835Z,93.76
2019-05-10T01:36:57.827Z,93.45
2019-05-10T01:37:57.812Z,93.45
2019-05-10T01:38:57.832Z,93.45
2019-05-10T01:39:57.793Z,93.25
2019-05-10T01:40:57.781Z,93.19
2019-05-10T01:41:57.767Z,93.60
2019-05-10T01:42:57.757Z,93.08
2019-05-10T01:43:57.762Z,92.98
2019-05-10T01:44:57.737Z,92.68
2019-05-10T01:45:57.728Z,92.98
2019-05-10T01:46:57.714Z,92.68
2019-05-10T01:47:57.704Z,92.78
2019-05-10T01:48:57.715Z,92.57
2019-05-10T01:49:57.694Z,92.68
2019-05-10T01:50:57.673Z,92.88
2019-05-10T01:51:57.677Z,92.78
2019-05-10T01:52:57.654Z,93.29
2019-05-10T01:53:57.644Z,92.98
2019-05-10T01:54:57.655Z,92.78
2019-05-10T01:55:57.616Z,92.88
2019-05-10T01:56:57.602Z,93.02
2019-05-10T01:57:57.593Z,93.08
2019-05-10T01:58:57.583Z,92.51
2019-05-10T01:59:57.588Z,91.90
2019-05-10T02:00:57.559Z,92.61
2019-05-10T02:01:57.552Z,92.61
2019-05-10T02:02:57.543Z,93.02
2019-05-10T02:03:57.532Z,93.02
2019-05-10T02:04:57.552Z,92.72
2019-05-10T02:05:57.506Z,93.02
2019-05-10T02:06:57.494Z,92.72
2019-05-10T02:07:57.483Z,93.02
2019-05-10T02:08:57.476Z,92.61
2019-05-10T02:09:57.460Z,92.93
2019-05-10T02:10:57.469Z,92.82
2019-05-10T02:11:57.442Z,93.54
2019-05-10T02:12:57.427Z,92.93
2019-05-10T02:13:57.417Z,92.82
2019-05-10T02:14:57.409Z,92.82
2019-05-10T02:15:57.408Z,93.02
2019-05-10T02:16:57.383Z,93.44
2019-05-10T02:17:57.373Z,93.44
2019-05-10T02:18:57.365Z,93.44
2019-05-10T02:19:57.351Z,93.49
2019-05-10T02:20:57.370Z,93.13
2019-05-10T02:21:57.325Z,93.39
2019-05-10T02:22:57.317Z,93.19
2019-05-10T02:23:57.306Z,93.39
2019-05-10T02:24:57.295Z,93.33
2019-05-10T02:26:08.845Z,92.88
2019-05-10T02:26:58.285Z,93.13
2019-05-10T02:27:57.273Z,93.44
2019-05-10T02:28:57.254Z,92.88
2019-05-10T02:29:57.240Z,93.19
2019-05-10T02:30:57.227Z,92.68
2019-05-10T02:31:57.238Z,92.98
2019-05-10T02:32:57.214Z,92.68
2019-05-10T02:33:57.196Z,92.78
2019-05-10T02:34:57.186Z,92.98
2019-05-10T02:35:57.190Z,92.68
2019-05-10T02:36:57.202Z,92.98
2019-05-10T02:37:57.159Z,92.68
2019-05-10T02:38:57.145Z,93.08
2019-05-10T02:39:57.128Z,92.72
2019-05-10T02:40:57.127Z,93.49
2019-05-10T02:41:57.111Z,93.29
2019-05-10T02:42:57.116Z,93.80
2019-05-10T02:43:57.118Z,93.29
2019-05-10T02:44:57.077Z,92.98
2019-05-10T02:45:57.066Z,93.49
2019-05-10T02:46:57.072Z,92.68
2019-05-10T02:47:57.083Z,93.08
2019-05-10T02:48:57.041Z,94.42
2019-05-10T02:49:59.151Z,94.11
2019-05-10T02:50:57.010Z,93.90
2019-05-10T02:51:57.012Z,94.32
2019-05-10T02:52:57.016Z,94.32
2019-05-10T02:53:56.993Z,94.32
2019-05-10T02:54:56.974Z,94.21
2019-05-10T02:55:57.030Z,94.32
2019-05-10T02:56:56.978Z,94.42
2019-05-10T02:57:56.931Z,94.32
2019-05-10T02:58:56.937Z,94.32
2019-05-10T02:59:56.917Z,94.52
2019-05-10T03:00:56.907Z,94.42
2019-05-10T03:01:56.903Z,94.52
2019-05-10T03:02:56.897Z,94.21
2019-05-10T03:03:56.880Z,94.21
2019-05-10T03:04:56.860Z,94.32
2019-05-10T03:05:56.849Z,94.11
2019-05-10T03:06:56.834Z,94.42
2019-05-10T03:07:56.844Z,95.14
2019-05-10T03:08:56.816Z,95.14
2019-05-10T03:09:56.800Z,95.44
2019-05-10T03:10:56.804Z,95.14
2019-05-10T03:11:56.793Z,95.34
2019-05-10T03:12:56.768Z,94.32
2019-05-10T03:13:56.760Z,94.52
2019-05-10T03:14:56.771Z,94.21
2019-05-10T03:15:56.739Z,94.52
2019-05-10T03:16:56.725Z,94.42
2019-05-10T03:17:56.727Z,94.73
2019-05-10T03:18:56.702Z,94.52
2019-05-10T03:19:56.713Z,94.52
2019-05-10T03:20:56.680Z,94.42
2019-05-10T03:21:56.684Z,94.32
2019-05-10T03:22:56.667Z,94.52
2019-05-10T03:23:56.651Z,94.52
2019-05-10T03:24:56.666Z,94.42
2019-05-10T03:25:56.624Z,94.21
2019-05-10T03:26:56.614Z,94.21
2019-05-10T03:27:56.620Z,94.62
2019-05-10T03:28:56.601Z,94.52
2019-05-10T03:29:56.590Z,94.42
2019-05-10T03:30:56.585Z,94.52
2019-05-10T03:31:56.584Z,94.62
2019-05-10T03:32:56.569Z,94.42
2019-05-10T03:33:57.851Z,94.52
2019-05-10T03:34:56.557Z,94.32
2019-05-10T03:35:56.535Z,94.21
2019-05-10T03:36:56.508Z,94.21
2019-05-10T03:37:56.506Z,94.48
2019-05-10T03:38:56.491Z,94.37
2019-05-10T03:39:56.522Z,94.37
2019-05-10T03:40:56.466Z,94.21
2019-05-10T03:41:56.522Z,94.83
2019-05-10T03:42:56.440Z,94.42
2019-05-10T03:43:56.434Z,93.96
2019-05-10T03:44:56.421Z,93.80
2019-05-10T03:45:56.425Z,94.11
2019-05-10T03:46:56.414Z,93.15
2019-05-10T03:47:56.396Z,93.25
2019-05-10T03:48:56.380Z,93.35
2019-05-10T03:49:56.381Z,93.66
2019-05-10T03:50:56.387Z,93.25
2019-05-10T03:51:56.348Z,93.45
2019-05-10T03:52:56.331Z,93.15
2019-05-10T03:53:56.327Z,93.25
2019-05-10T03:54:56.316Z,93.35
2019-05-10T03:55:56.314Z,93.04
2019-05-10T03:57:12.056Z,92.94
2019-05-10T03:57:57.277Z,92.12
2019-05-10T03:58:56.277Z,92.12
2019-05-10T03:59:56.260Z,92.22
2019-05-10T04:00:56.244Z,92.22
2019-05-10T04:01:56.256Z,92.02
2019-05-10T04:02:56.233Z,92.12
2019-05-10T04:03:56.227Z,92.32
2019-05-10T04:04:56.206Z,91.61
2019-05-10T04:05:56.219Z,91.82
2019-05-10T04:06:56.183Z,91.71
2019-05-10T04:07:56.208Z,92.02
2019-05-10T04:08:56.162Z,92.08
2019-05-10T04:09:56.148Z,91.87
2019-05-10T04:10:56.146Z,92.53
2019-05-10T04:11:56.149Z,92.22
2019-05-10T04:12:56.118Z,91.82
2019-05-10T04:13:56.119Z,91.50
2019-05-10T04:14:56.101Z,92.12
2019-05-10T04:15:56.094Z,92.02
2019-05-10T04:16:56.104Z,92.02
2019-05-10T04:17:56.068Z,91.87
2019-05-10T04:18:56.059Z,91.77
2019-05-10T04:19:56.055Z,91.30
2019-05-10T04:20:56.044Z,91.09
2019-05-10T04:21:56.125Z,90.84
2019-05-10T04:22:56.020Z,91.40
2019-05-10T04:23:55.996Z,91.91
2019-05-10T04:24:55.993Z,91.40
2019-05-10T04:25:55.985Z,91.71
2019-05-10T04:26:55.975Z,90.99
2019-05-10T04:27:55.975Z,91.26
2019-05-10T04:28:55.957Z,91.46
2019-05-10T04:29:55.936Z,91.16
2019-05-10T04:30:55.960Z,91.16
2019-05-10T04:31:55.907Z,91.36
2019-05-10T04:32:55.909Z,90.75
2019-05-10T04:33:55.892Z,90.75
2019-05-10T04:34:55.875Z,90.13
2019-05-10T04:35:55.867Z,90.13
2019-05-10T04:36:55.859Z,89.92
2019-05-10T04:37:55.864Z,91.46
2019-05-10T04:38:55.847Z,90.75
2019-05-10T04:39:55.821Z,90.75
2019-05-10T04:40:55.811Z,90.44
2019-05-10T04:41:55.839Z,91.05
2019-05-10T04:42:55.791Z,90.75
2019-05-10T04:43:55.788Z,91.52
2019-05-10T04:44:55.773Z,90.84
2019-05-10T04:45:55.763Z,90.95
2019-05-10T04:46:55.742Z,90.84
2019-05-10T04:47:55.737Z,90.54
2019-05-10T04:48:55.731Z,91.56
2019-05-10T04:49:55.717Z,91.26
2019-05-10T04:50:55.699Z,91.26
2019-05-10T04:51:55.689Z,91.05
2019-05-10T04:52:55.675Z,90.84
2019-05-10T04:53:55.680Z,91.26
2019-05-10T04:54:55.657Z,90.95
2019-05-10T04:55:55.640Z,90.34
2019-05-10T04:56:59.934Z,90.54
2019-05-10T04:57:55.619Z,89.89
2019-05-10T04:58:55.630Z,90.13
2019-05-10T04:59:55.606Z,89.78
2019-05-10T05:00:55.588Z,91.01
2019-05-10T05:01:55.573Z,89.78
2019-05-10T05:02:55.561Z,89.92
2019-05-10T05:03:55.548Z,89.89
2019-05-10T05:04:55.553Z,90.64
2019-05-10T05:05:55.527Z,91.22
2019-05-10T05:06:55.520Z,90.95
2019-05-10T05:07:55.529Z,90.13
2019-05-10T05:08:55.492Z,90.44
2019-05-10T05:09:55.504Z,91.05
2019-05-10T05:10:55.480Z,91.16
2019-05-10T05:11:55.465Z,91.01
2019-05-10T05:12:55.455Z,91.05
2019-05-10T05:13:55.437Z,91.56
2019-05-10T05:14:55.427Z,91.46
2019-05-10T05:15:55.431Z,91.67
2019-05-10T05:16:55.413Z,91.31
2019-05-10T05:17:55.397Z,91.46
2019-05-10T05:18:55.379Z,91.16
2019-05-10T05:19:55.387Z,91.46
2019-05-10T05:20:55.393Z,92.08
2019-05-10T05:21:55.370Z,92.38
2019-05-10T05:22:55.345Z,91.26
2019-05-10T05:23:55.336Z,91.36
2019-05-10T05:25:01.322Z,91.36
2019-05-10T05:25:56.327Z,91.36
2019-05-10T05:26:55.312Z,91.97
2019-05-10T05:28:07.637Z,92.08
2019-05-10T05:28:56.278Z,92.08
2019-05-10T05:29:55.287Z,92.24
2019-05-10T05:30:55.256Z,91.97
2019-05-10T05:32:01.691Z,90.95
2019-05-10T05:32:56.998Z,92.03
2019-05-10T05:33:59.219Z,91.87
2019-05-10T05:34:56.199Z,92.75
2019-05-10T05:35:55.206Z,91.73
2019-05-10T05:36:55.191Z,91.83
2019-05-10T05:37:55.169Z,92.14
2019-05-10T05:38:55.158Z,90.91
2019-05-10T05:39:55.155Z,91.42
2019-05-10T05:40:55.136Z,91.52
2019-05-10T05:41:56.631Z,91.73
2019-05-10T05:42:55.114Z,91.73
2019-05-10T05:43:55.116Z,91.11
2019-05-10T05:44:55.173Z,91.31
2019-05-10T05:45:55.233Z,91.93
2019-05-10T05:46:55.094Z,91.83
2019-05-10T05:47:55.059Z,91.83
2019-05-10T05:48:55.049Z,91.73
2019-05-10T05:49:55.036Z,91.63
2019-05-10T05:50:55.032Z,92.03
2019-05-10T05:51:55.017Z,92.24
2019-05-10T05:52:55.049Z,92.03
2019-05-10T05:53:55.038Z,92.14
2019-05-10T05:54:57.474Z,92.03
2019-05-10T05:55:54.974Z,92.55
2019-05-10T05:56:54.962Z,91.93
2019-05-10T05:57:59.193Z,92.03
2019-05-10T05:58:55.939Z,92.55
2019-05-10T05:59:57.522Z,92.03
2019-05-10T06:00:55.926Z,91.93
2019-05-10T06:02:00.519Z,92.14
2019-05-10T06:02:55.915Z,92.85
2019-05-10T06:04:00.116Z,92.55
2019-05-10T06:04:55.873Z,92.40
2019-05-10T06:05:54.871Z,92.24
2019-05-10T06:06:59.033Z,93.06
2019-05-10T06:07:55.841Z,92.55
2019-05-10T06:08:59.774Z,92.85
2019-05-10T06:09:55.817Z,92.60
2019-05-10T06:10:57.940Z,92.91
2019-05-10T06:11:55.810Z,92.60
2019-05-10T06:12:54.790Z,92.71
2019-05-10T06:13:54.789Z,92.71
2019-05-10T06:14:54.764Z,92.75
2019-05-10T06:15:54.761Z,91.99
2019-05-10T06:16:54.743Z,91.58
2019-05-10T06:17:56.972Z,91.89
2019-05-10T06:18:54.718Z,92.75
2019-05-10T06:19:54.716Z,92.60
2019-05-10T06:21:18.004Z,93.01
2019-05-10T06:22:03.783Z,92.50
2019-05-10T06:23:06.539Z,92.60
2019-05-10T06:23:59.066Z,92.55
2019-05-10T06:24:54.655Z,93.01
2019-05-10T06:25:54.648Z,92.85
2019-05-10T06:26:58.224Z,92.50
2019-05-10T06:27:55.622Z,92.71
2019-05-10T06:28:59.575Z,93.01
2019-05-10T06:29:55.600Z,92.10
2019-05-10T06:30:54.630Z,92.71
2019-05-10T06:31:58.557Z,92.60
2019-05-10T06:33:00.741Z,92.10
2019-05-10T06:33:55.608Z,91.78
2019-05-10T06:34:54.544Z,92.19
2019-05-10T06:35:54.537Z,92.50
2019-05-10T06:36:54.524Z,91.48
2019-05-10T06:37:54.515Z,91.54
2019-05-10T06:38:54.500Z,92.91
2019-05-10T06:39:54.502Z,92.66
2019-05-10T06:40:54.485Z,92.56
2019-05-10T06:41:55.960Z,93.48
2019-05-10T06:42:54.460Z,92.15
2019-05-10T06:43:54.448Z,91.54
2019-05-10T06:44:54.694Z,91.64
2019-05-10T06:45:54.446Z,91.95
2019-05-10T06:46:54.416Z,91.85
2019-05-10T06:47:54.472Z,91.95
2019-05-10T06:48:54.394Z,91.85
2019-05-10T06:49:54.400Z,91.74
2019-05-10T06:50:54.372Z,90.88
2019-05-10T06:51:54.360Z,90.68
2019-05-10T06:52:54.348Z,91.09
2019-05-10T06:53:54.335Z,91.09
2019-05-10T06:54:54.355Z,91.29
2019-05-10T06:55:54.318Z,91.80
2019-05-10T06:56:54.310Z,91.05
2019-05-10T06:57:59.560Z,90.84
2019-05-10T06:58:55.284Z,90.68
2019-05-10T06:59:56.941Z,91.39
2019-05-10T07:00:55.262Z,90.64
2019-05-10T07:01:54.249Z,90.74
2019-05-10T07:02:54.241Z,89.82
2019-05-10T07:03:54.227Z,90.02
2019-05-10T07:04:54.219Z,89.61
2019-05-10T07:05:54.225Z,90.33
2019-05-10T07:06:54.208Z,91.15
2019-05-10T07:08:00.017Z,90.64
2019-05-10T07:08:57.713Z,89.67
2019-05-10T07:10:12.412Z,88.55
2019-05-10T07:10:55.163Z,89.88
2019-05-10T07:11:54.137Z,88.35
2019-05-10T07:12:57.303Z,88.76
2019-05-10T07:13:55.115Z,88.61
2019-05-10T07:14:57.796Z,88.45
2019-05-10T07:15:55.104Z,88.51
2019-05-10T07:16:56.662Z,88.82
2019-05-10T07:17:55.070Z,88.41
2019-05-10T07:18:54.875Z,88.41
2019-05-10T07:19:55.411Z,87.18
2019-05-10T07:20:54.051Z,88.61
2019-05-10T07:21:54.040Z,87.70
2019-05-10T07:22:54.023Z,87.90
2019-05-10T07:23:54.021Z,87.38
2019-05-10T07:25:01.503Z,86.67
2019-05-10T07:25:54.984Z,86.88
2019-05-10T07:26:56.674Z,87.49
2019-05-10T07:27:54.970Z,88.24
2019-05-10T07:28:57.769Z,86.88
2019-05-10T07:29:54.942Z,87.29
2019-05-10T07:30:53.942Z,85.89
2019-05-10T07:31:53.924Z,86.57
2019-05-10T07:32:54.527Z,87.18
2019-05-10T07:33:54.921Z,86.98
2019-05-10T07:34:58.964Z,85.96
2019-05-10T07:35:54.877Z,86.98
2019-05-10T07:36:53.867Z,87.08
2019-05-10T07:37:53.853Z,85.86
2019-05-10T07:38:53.866Z,85.96
2019-05-10T07:39:53.832Z,85.65
2019-05-10T07:40:54.618Z,85.86
2019-05-10T07:41:53.812Z,85.65
2019-05-10T07:42:53.802Z,87.18
2019-05-10T07:44:00.621Z,86.98
2019-05-10T07:44:54.776Z,85.35
2019-05-10T07:45:58.519Z,85.86
2019-05-10T07:46:58.425Z,84.74
2019-05-10T07:47:53.749Z,85.75
2019-05-10T07:48:53.969Z,84.12
2019-05-10T07:49:54.611Z,84.74
2019-05-10T07:50:53.716Z,85.24
2019-05-10T07:51:53.711Z,84.67
2019-05-10T07:52:53.696Z,85.65
2019-05-10T07:53:57.017Z,85.35
2019-05-10T07:54:54.680Z,85.59
2019-05-10T07:55:53.669Z,85.89
2019-05-10T07:56:53.646Z,85.08
2019-05-10T07:57:53.674Z,83.95
2019-05-10T07:58:54.622Z,83.85
2019-05-10T07:59:57.614Z,84.77
2019-05-10T08:00:56.194Z,83.92
2019-05-10T08:01:53.596Z,84.12
2019-05-10T08:03:02.446Z,84.01
2019-05-10T08:03:54.571Z,84.42
2019-05-10T08:04:53.820Z,84.49
2019-05-10T08:05:57.053Z,82.86
2019-05-10T08:06:54.534Z,82.75
2019-05-10T08:07:53.526Z,81.53
2019-05-10T08:08:55.402Z,82.55
2019-05-10T08:09:54.529Z,80.57
2019-05-10T08:10:53.500Z,80.68
2019-05-10T08:12:00.597Z,82.21
2019-05-10T08:12:54.471Z,79.55
2019-05-10T08:13:57.803Z,78.74
2019-05-10T08:14:54.448Z,78.84
2019-05-10T08:15:53.454Z,78.09
2019-05-10T08:16:58.366Z,79.41
2019-05-10T08:17:54.413Z,79.41
2019-05-10T08:18:55.827Z,78.39
2019-05-10T08:19:54.396Z,76.19
2019-05-10T08:20:58.183Z,77.11
2019-05-10T08:22:00.793Z,75.68
2019-05-10T08:22:54.358Z,77.00
2019-05-10T08:23:54.070Z,75.78
2019-05-10T08:24:56.388Z,77.11
2019-05-10T08:25:53.637Z,75.07
2019-05-10T08:26:55.617Z,75.71
2019-05-10T08:27:55.394Z,78.23
2019-05-10T08:28:53.294Z,76.43
2019-05-10T08:30:18.074Z,77.31
2019-05-10T08:30:58.902Z,77.82
2019-05-10T08:31:55.902Z,77.31
2019-05-10T08:32:53.259Z,76.19
2019-05-10T08:33:58.537Z,75.37
2019-05-10T08:34:55.815Z,75.78
2019-05-10T08:36:00.561Z,77.31
2019-05-10T08:36:54.209Z,77.11
2019-05-10T08:37:53.209Z,74.66
2019-05-10T08:39:05.177Z,75.57
2019-05-10T08:39:55.993Z,75.64
2019-05-10T08:40:53.181Z,75.74
2019-05-10T08:42:04.075Z,73.71
2019-05-10T08:43:03.387Z,75.13
2019-05-10T08:43:54.130Z,73.50
2019-05-10T08:45:03.232Z,74.42
2019-05-10T08:45:57.596Z,74.93
2019-05-10T08:46:53.099Z,76.32
2019-05-10T08:48:01.047Z,75.51
2019-05-10T08:48:54.091Z,73.84
2019-05-10T08:50:10.897Z,72.31
2019-05-10T08:50:57.598Z,72.92
2019-05-10T08:51:54.066Z,72.41
2019-05-10T08:52:56.721Z,71.39
2019-05-10T08:53:57.979Z,70.75
2019-05-10T08:54:55.298Z,71.97
2019-05-10T08:55:53.001Z,69.02
2019-05-10T08:57:01.106Z,72.08
2019-05-10T08:57:53.976Z,71.56
2019-05-10T08:58:53.699Z,73.36
2019-05-10T08:59:54.265Z,68.88
2019-05-10T09:01:11.071Z,70.92
2019-05-10T09:01:53.954Z,68.58
2019-05-10T09:02:52.924Z,68.99
2019-05-10T09:03:59.915Z,68.38
2019-05-10T09:04:53.901Z,69.02
2019-05-10T09:05:52.913Z,69.32
2019-05-10T09:06:59.574Z,70.55
2019-05-10T09:07:53.869Z,70.55
2019-05-10T09:09:01.323Z,70.86
2019-05-10T09:09:53.847Z,70.24
2019-05-10T09:10:53.119Z,69.32
2019-05-10T09:11:57.738Z,70.55
2019-05-10T09:12:57.927Z,69.84
2019-05-10T09:13:53.863Z,70.55
2019-05-10T09:14:57.459Z,70.65
2019-05-10T09:15:56.771Z,69.93
2019-05-10T09:17:00.702Z,70.75
2019-05-10T09:17:58.204Z,70.95
2019-05-10T09:18:53.760Z,70.38
2019-05-10T09:19:52.742Z,70.48
2019-05-10T09:20:54.255Z,71.39
2019-05-10T09:21:55.000Z,72.48
2019-05-10T09:22:52.976Z,70.78
2019-05-10T09:24:01.043Z,70.55
2019-05-10T09:24:53.683Z,70.24
2019-05-10T09:25:52.675Z,71.06
2019-05-10T09:26:56.790Z,71.47
2019-05-10T09:27:53.206Z,69.84
2019-05-10T09:28:57.390Z,70.45
2019-05-10T09:29:53.629Z,70.86
2019-05-10T09:31:00.371Z,71.16
2019-05-10T09:31:53.606Z,69.32
2019-05-10T09:32:52.599Z,70.04
2019-05-10T09:33:54.358Z,69.63
2019-05-10T09:34:54.356Z,69.84
2019-05-10T09:35:55.073Z,71.06
2019-05-10T09:36:53.057Z,68.92
2019-05-10T09:37:57.180Z,69.53
2019-05-10T09:38:53.537Z,69.43
2019-05-10T09:40:04.268Z,68.41
2019-05-10T09:40:56.269Z,69.32
2019-05-10T09:41:52.949Z,70.51
2019-05-10T09:42:52.498Z,67.29
2019-05-10T09:43:53.784Z,67.08
2019-05-10T09:44:52.775Z,66.78
2019-05-10T09:45:53.163Z,68.01
2019-05-10T09:46:52.620Z,68.71
2019-05-10T09:47:53.071Z,67.69
2019-05-10T09:48:54.644Z,68.41
2019-05-10T09:49:58.649Z,67.19
2019-05-10T09:50:56.341Z,68.10
2019-05-10T09:51:55.053Z,68.41
2019-05-10T09:52:52.388Z,67.26
2019-05-10T09:53:52.369Z,69.90
2019-05-10T09:54:52.357Z,68.48
2019-05-10T09:56:01.766Z,68.58
2019-05-10T09:56:53.339Z,67.46
2019-05-10T09:57:52.329Z,66.41
2019-05-10T09:58:52.323Z,67.53
2019-05-10T09:59:52.311Z,67.43
2019-05-10T10:00:52.312Z,65.80
2019-05-10T10:01:52.282Z,65.33
2019-05-10T10:02:56.229Z,67.13
2019-05-10T10:03:53.263Z,68.75
2019-05-10T10:04:52.259Z,69.16
2019-05-10T10:05:55.051Z,70.18
2019-05-10T10:06:53.236Z,70.68
2019-05-10T10:07:52.220Z,70.48
2019-05-10T10:08:53.474Z,69.87
2019-05-10T10:09:52.227Z,70.07
2019-05-10T10:10:52.200Z,70.28
2019-05-10T10:11:57.980Z,69.29
2019-05-10T10:12:58.430Z,70.41
2019-05-10T10:13:59.351Z,70.45
2019-05-10T10:14:53.142Z,70.55
2019-05-10T10:15:52.666Z,71.87
2019-05-10T10:16:58.791Z,71.16
2019-05-10T10:17:53.111Z,71.87
2019-05-10T10:18:52.100Z,71.87
2019-05-10T10:19:52.085Z,70.65
2019-05-10T10:20:52.092Z,70.58
2019-05-10T10:21:52.077Z,71.91
2019-05-10T10:22:54.525Z,72.31
2019-05-10T10:23:52.046Z,73.19
2019-05-10T10:24:54.861Z,71.47
2019-05-10T10:25:53.022Z,72.08
2019-05-10T10:26:53.854Z,71.67
2019-05-10T10:27:52.021Z,71.67
2019-05-10T10:28:55.245Z,71.16
2019-05-10T10:29:52.974Z,70.95
2019-05-10T10:30:58.824Z,71.06
2019-05-10T10:31:58.323Z,71.23
2019-05-10T10:32:52.960Z,71.33
2019-05-10T10:33:58.166Z,72.01
2019-05-10T10:34:54.834Z,70.48
2019-05-10T10:35:56.436Z,69.97
2019-05-10T10:36:52.930Z,68.24
2019-05-10T10:37:51.887Z,69.16
2019-05-10T10:38:51.886Z,68.55
2019-05-10T10:39:54.460Z,69.13
2019-05-10T10:40:52.854Z,67.63
2019-05-10T10:41:52.272Z,67.53
2019-05-10T10:42:51.835Z,67.33
2019-05-10T10:43:51.858Z,69.53
2019-05-10T10:44:51.827Z,68.41
2019-05-10T10:45:51.804Z,67.10
2019-05-10T10:46:51.795Z,65.77
2019-05-10T10:47:51.778Z,65.67
2019-05-10T10:48:51.774Z,67.60
2019-05-10T10:49:51.770Z,67.19
2019-05-10T10:50:55.720Z,66.86
2019-05-10T10:51:52.731Z,67.06
2019-05-10T10:52:51.728Z,66.25
2019-05-10T10:53:54.655Z,66.96
2019-05-10T10:54:52.717Z,66.46
2019-05-10T10:55:54.291Z,65.64
2019-05-10T10:56:52.680Z,66.12
2019-05-10T10:57:51.670Z,65.91
2019-05-10T10:58:51.671Z,64.32
2019-05-10T10:59:51.646Z,64.22
2019-05-10T11:00:51.648Z,65.03
2019-05-10T11:02:23.204Z,64.93
2019-05-10T11:02:53.702Z,67.16
2019-05-10T11:03:51.608Z,66.05
2019-05-10T11:04:51.599Z,65.94
2019-05-10T11:05:51.594Z,64.93
2019-05-10T11:07:08.814Z,65.41
2019-05-10T11:07:52.565Z,67.03
2019-05-10T11:08:51.948Z,67.54
2019-05-10T11:09:55.897Z,66.12
2019-05-10T11:10:52.532Z,66.08
2019-05-10T11:11:51.775Z,65.78
2019-05-10T11:12:56.356Z,66.05
2019-05-10T11:14:00.555Z,65.85
2019-05-10T11:14:52.491Z,66.86
2019-05-10T11:15:51.781Z,64.61
2019-05-10T11:16:55.442Z,65.01
2019-05-10T11:17:52.474Z,64.00
2019-05-10T11:18:52.085Z,63.96
2019-05-10T11:19:51.456Z,64.07
2019-05-10T11:20:53.972Z,61.94
2019-05-10T11:21:51.554Z,59.81
2019-05-10T11:22:53.381Z,60.42
2019-05-10T11:23:51.392Z,60.85
2019-05-10T11:24:59.722Z,61.25
2019-05-10T11:25:56.485Z,61.76
2019-05-10T11:26:51.781Z,61.46
2019-05-10T11:27:53.852Z,61.13
2019-05-10T11:28:52.340Z,58.52
2019-05-10T11:29:54.909Z,59.43
2019-05-10T11:30:51.374Z,60.04
2019-05-10T11:32:11.285Z,61.16
2019-05-10T11:32:52.301Z,60.78
2019-05-10T11:33:53.607Z,60.75
2019-05-10T11:34:52.284Z,61.25
2019-05-10T11:35:51.511Z,59.41
2019-05-10T11:36:51.327Z,59.03
2019-05-10T11:37:51.240Z,59.70
2019-05-10T11:38:53.595Z,57.75
2019-05-10T11:39:52.228Z,58.16
2019-05-10T11:40:51.207Z,57.86
2019-05-10T11:42:00.989Z,57.04
2019-05-10T11:42:52.190Z,57.45
2019-05-10T11:43:51.193Z,57.58
2019-05-10T11:44:54.626Z,58.80
2019-05-10T11:45:51.549Z,60.62
2019-05-10T11:46:51.144Z,59.50
2019-05-10T11:47:54.390Z,57.07
2019-05-10T11:48:52.133Z,57.48
2019-05-10T11:49:51.117Z,57.37
2019-05-10T11:50:51.541Z,57.88
2019-05-10T11:51:54.748Z,61.33
2019-05-10T11:52:52.115Z,58.67
2019-05-10T11:53:55.419Z,57.75
2019-05-10T11:54:52.061Z,57.35
2019-05-10T11:55:51.718Z,57.53
2019-05-10T11:56:52.224Z,57.93
2019-05-10T11:58:01.851Z,59.14
2019-05-10T11:58:55.390Z,55.70
2019-05-10T11:59:51.643Z,57.42
2019-05-10T12:00:58.878Z,58.00
2019-05-10T12:01:57.866Z,58.11
2019-05-10T12:03:12.481Z,55.80
2019-05-10T12:03:52.001Z,57.42
2019-05-10T12:04:52.651Z,57.53
2019-05-10T12:05:53.095Z,56.44
2019-05-10T12:06:51.931Z,56.84
2019-05-10T12:07:54.153Z,56.03
2019-05-10T12:08:56.761Z,56.97
2019-05-10T12:10:03.327Z,57.17
2019-05-10T12:11:55.415Z,59.07
2019-05-10T12:13:06.163Z,55.52
2019-05-10T12:13:56.863Z,55.73
2019-05-10T12:14:53.930Z,55.93
2019-05-10T12:15:51.973Z,55.43
2019-05-10T12:16:54.623Z,55.65
2019-05-10T12:17:58.635Z,55.98
2019-05-10T12:19:17.102Z,56.97
2019-05-10T12:19:56.336Z,56.49
2019-05-10T12:21:55.509Z,56.46
2019-05-10T12:22:51.713Z,55.55
2019-05-10T12:23:55.656Z,56.18
2019-05-10T12:25:06.193Z,55.98
2019-05-10T12:26:27.897Z,55.98
2019-05-10T12:26:50.371Z,58.49
2019-05-10T12:26:54.949Z,55.78
2019-05-10T12:27:18.757Z,55.68
2019-05-10T12:27:52.556Z,57.10
2019-05-10T12:28:51.162Z,56.99
2019-05-10T12:29:55.497Z,56.70
2019-05-10T12:30:51.683Z,57.43
2019-05-10T12:31:55.138Z,57.03
2019-05-10T12:32:56.635Z,57.05
2019-05-10T12:33:51.660Z,57.46
2019-05-10T12:34:54.840Z,57.35
2019-05-10T12:35:51.629Z,57.48
2019-05-10T12:36:51.912Z,57.66
2019-05-10T12:37:53.977Z,58.06
2019-05-10T12:38:50.623Z,59.28
2019-05-10T12:39:52.907Z,59.39
2019-05-10T12:40:51.395Z,58.58
2019-05-10T12:41:52.957Z,57.35
2019-05-10T12:42:50.551Z,58.20
2019-05-10T12:43:51.753Z,59.18
2019-05-10T12:44:51.634Z,58.98
2019-05-10T12:45:51.753Z,57.86
2019-05-10T12:46:53.919Z,59.39
2019-05-10T12:47:51.760Z,58.67
2019-05-10T12:48:51.632Z,58.27
2019-05-10T12:49:53.813Z,59.89
2019-05-10T12:50:54.985Z,59.59
2019-05-10T12:51:51.498Z,59.48
2019-05-10T12:53:02.743Z,58.95